Time;durP1;ratioP1;P1;durP2;ratioP2;P2;SDS_P1;SDS_P2;PMS_P1;PMS_P2;Temp;Humidity;BMP_temperature;BMP_pressure;BME280_temperature;BME280_humidity;BME280_pressure;Samples;Min_cycle;Max_cycle;Signal;HPM_P1;HPM_P2
2023/01/15 00:00:56;;;;;;;;;;;;;;;7.09;100.00;99683.38;5034203;28;20029;-36
2023/01/15 00:03:21;;;;;;;16.98;2.10;;;;;;;7.10;100.00;99692.25;5034036;28;19916;-36
2023/01/15 00:05:47;;;;;;;14.32;2.03;;;;;;;7.07;100.00;99684.59;5035085;28;20037;-35
2023/01/15 00:08:12;;;;;;;37.88;3.67;;;;;;;7.04;100.00;99686.63;5033790;28;20037;-37
2023/01/15 00:10:37;;;;;;;21.17;2.30;;;;;;;7.05;100.00;99687.44;5041514;28;20029;-37
2023/01/15 00:13:03;;;;;;;21.45;2.28;;;;;;;7.04;100.00;99686.63;5053556;28;20052;-36
2023/01/15 00:15:28;;;;;;;24.80;2.10;;;;;;;7.04;100.00;99680.44;5053484;28;20025;-36
2023/01/15 00:17:53;;;;;;;12.50;1.75;;;;;;;7.03;100.00;99679.63;5040883;28;20052;-36
2023/01/15 00:20:19;;;;;;;23.50;3.17;;;;;;;7.04;100.00;99683.13;5033068;28;20033;-35
2023/01/15 00:22:44;;;;;;;32.65;3.80;;;;;;;7.04;100.00;99689.28;5040322;28;20034;-36
2023/01/15 00:27:54;;;;;;;22.10;1.85;;;;;;;6.99;100.00;99658.78;5039238;28;20044;-36
2023/01/15 00:30:20;;;;;;;35.42;3.22;;;;;;;6.98;100.00;99676.69;5032871;28;20026;-36
2023/01/15 00:32:45;;;;;;;24.45;2.38;;;;;;;6.95;100.00;99655.66;5035380;28;20478;-36
2023/01/15 00:35:16;;;;;;;11.15;1.80;;;;;;;6.92;100.00;99660.53;5045139;28;20126;-37
2023/01/15 00:37:41;;;;;;;25.27;2.40;;;;;;;6.89;100.00;99672.44;5046004;28;20037;-36
2023/01/15 00:40:08;;;;;;;16.40;1.73;;;;;;;6.89;100.00;99669.75;5041566;28;20451;-35
2023/01/15 00:42:33;;;;;;;28.63;2.50;;;;;;;6.87;100.00;99670.97;5033115;28;20033;-35
2023/01/15 00:45:04;;;;;;;40.22;2.75;;;;;;;6.85;100.00;99675.69;5032577;28;20374;-35
2023/01/15 00:47:30;;;;;;;29.40;3.22;;;;;;;6.85;100.00;99667.66;5038664;28;20398;-37
2023/01/15 00:49:55;;;;;;;27.45;2.63;;;;;;;6.83;100.00;99670.50;5032699;28;20025;-37
2023/01/15 00:52:20;;;;;;;20.33;2.80;;;;;;;6.81;100.00;99668.00;5032905;28;20029;-37
2023/01/15 00:54:47;;;;;;;17.05;2.80;;;;;;;6.83;100.00;99670.50;5034813;28;20124;-37
2023/01/15 00:57:12;;;;;;;19.05;1.95;;;;;;;6.79;100.00;99669.22;5042907;28;20036;-35
2023/01/15 00:59:37;;;;;;;16.42;1.90;;;;;;;6.80;100.00;99678.91;5032791;28;20026;-36
2023/01/15 01:02:03;;;;;;;13.82;1.67;;;;;;;6.81;100.00;99675.22;5033041;28;20044;-36
2023/01/15 01:04:28;;;;;;;27.58;2.10;;;;;;;6.82;100.00;99671.53;5032806;28;20025;-36
2023/01/15 01:06:53;;;;;;;25.58;2.20;;;;;;;6.84;100.00;99680.19;5032741;28;20542;-36
2023/01/15 01:09:19;;;;;;;20.00;2.28;;;;;;;6.84;100.00;99666.81;5049932;28;20554;-37
2023/01/15 01:11:44;;;;;;;28.60;3.03;;;;;;;6.84;100.00;99674.84;5052053;28;20373;-37
2023/01/15 01:14:10;;;;;;;25.75;2.90;;;;;;;6.84;100.00;99674.84;5052034;28;20059;-36
2023/01/15 01:16:38;;;;;;;28.92;2.88;;;;;;;6.82;100.00;99687.59;5049395;28;20033;-36
2023/01/15 01:19:10;;;;;;;27.13;2.75;;;;;;;6.81;100.00;99686.72;5048003;28;20166;-37
2023/01/15 01:21:39;;;;;;;19.48;2.35;;;;;;;6.82;100.00;99683.06;5051286;28;20052;-36
2023/01/15 01:24:06;;;;;;;29.88;2.90;;;;;;;6.81;100.00;99692.09;5038883;28;20553;-36
2023/01/15 01:26:32;;;;;;;28.33;2.80;;;;;;;6.79;100.00;99683.44;5053762;28;20470;-36
2023/01/15 01:28:58;;;;;;;32.70;3.17;;;;;;;6.76;100.00;99691.81;5053024;28;20025;-36
2023/01/15 01:31:23;;;;;;;27.63;2.30;;;;;;;6.79;100.00;99702.16;5037823;28;20033;-37
2023/01/15 01:33:50;;;;;;;16.33;1.85;;;;;;;6.80;100.00;99686.94;5031395;28;20075;-37
2023/01/15 01:36:16;;;;;;;23.42;2.30;;;;;;;6.82;100.00;99687.59;5031880;28;20377;-36
2023/01/15 01:38:42;;;;;;;26.92;2.85;;;;;;;6.82;100.00;99688.41;5031471;28;20034;-36
2023/01/15 01:41:07;;;;;;;29.33;2.80;;;;;;;6.83;100.00;99689.25;5031580;28;20034;-35
2023/01/15 01:43:51;;;;;;;24.67;2.30;;;;;;;6.81;100.00;99686.72;5031731;28;20527;-37
2023/01/15 01:46:16;;;;;;;24.60;2.47;;;;;;;6.82;100.00;99695.63;5031212;28;20155;-36
2023/01/15 01:48:42;;;;;;;19.55;1.73;;;;;;;6.86;100.00;99701.41;5031146;28;20130;-38
2023/01/15 01:51:07;;;;;;;25.80;2.65;;;;;;;6.84;100.00;99698.09;5039834;28;20079;-38
2023/01/15 01:53:32;;;;;;;17.75;1.90;;;;;;;6.82;100.00;99693.75;5039701;28;20021;-37
2023/01/15 01:55:58;;;;;;;17.45;2.00;;;;;;;6.84;100.00;99711.47;5050475;28;20075;-35
2023/01/15 01:58:27;;;;;;;25.58;3.20;;;;;;;6.80;100.00;99705.66;5039212;28;20029;-35
2023/01/15 02:00:53;;;;;;;28.05;2.60;;;;;;;6.81;100.00;99702.78;5031360;28;20032;-35
2023/01/15 02:03:21;;;;;;;25.90;2.88;;;;;;;6.76;100.00;99689.13;5030949;28;20021;-37
2023/01/15 02:05:49;;;;;;;19.90;2.50;;;;;;;6.77;100.00;99704.19;5029211;28;20041;-37
2023/01/15 02:08:15;;;;;;;20.42;2.72;;;;;;;6.75;100.00;99700.03;5033165;28;20033;-37
2023/01/15 02:10:40;;;;;;;34.58;2.53;;;;;;;6.73;100.00;99691.38;5029720;28;20449;-38
2023/01/15 02:13:11;;;;;;;22.45;2.42;;;;;;;6.71;100.00;99688.84;5031498;28;20025;-37
2023/01/15 02:15:47;;;;;;;25.80;2.40;;;;;;;6.69;100.00;99695.41;5049462;28;20032;-37
2023/01/15 02:18:43;;;;;;;27.70;2.45;;;;;;;6.69;100.00;99698.09;5034038;28;20041;-37
2023/01/15 02:21:08;;;;;;;34.47;3.38;;;;;;;6.70;100.00;99689.06;5029340;28;20037;-36
2023/01/15 02:23:46;;;;;;;26.38;3.72;;;;;;;6.70;100.00;99692.56;5030707;28;20025;-37
2023/01/15 02:26:22;;;;;;;19.60;3.35;;;;;;;6.68;100.00;99686.56;5029418;28;20033;-35
2023/01/15 02:28:49;;;;;;;23.52;2.08;;;;;;;6.67;100.00;99694.78;5030382;28;20025;-38
2023/01/15 02:31:18;;;;;;;26.40;2.40;;;;;;;6.64;100.00;99697.84;5044270;28;20459;-36
2023/01/15 02:34:02;;;;;;;29.88;2.78;;;;;;;6.59;100.00;99682.34;5049013;28;20033;-37
2023/01/15 02:36:30;;;;;;;19.08;2.03;;;;;;;6.56;100.00;99696.06;5046782;28;20140;-38
2023/01/15 02:38:57;;;;;;;18.23;1.85;;;;;;;6.55;100.00;99681.03;5041229;28;20065;-36
2023/01/15 02:41:27;;;;;;;20.80;2.30;;;;;;;6.54;100.00;99682.88;5046071;28;20029;-36
2023/01/15 02:43:55;;;;;;;29.27;3.00;;;;;;;6.55;100.00;99691.72;5027907;28;20033;-37
2023/01/15 02:46:23;;;;;;;18.80;2.08;;;;;;;6.57;100.00;99689.72;5030714;28;20025;-37
2023/01/15 02:48:49;;;;;;;;;;;;;;;6.56;100.00;99685.38;5030249;28;20068;-35
2023/01/15 02:51:18;;;;;;;33.45;2.80;;;;;;;6.53;100.00;99677.72;5033512;28;19951;-36
2023/01/15 02:53:46;;;;;;;35.75;3.83;;;;;;;6.50;100.00;99670.06;5041483;28;20045;-37
2023/01/15 02:56:18;;;;;;;20.23;2.97;;;;;;;6.47;100.00;99673.09;5049989;28;20047;-37
2023/01/15 02:58:44;;;;;;;24.70;2.15;;;;;;;6.48;100.00;99674.78;5030036;28;20033;-36
2023/01/15 03:01:16;;;;;;;24.38;2.88;;;;;;;6.51;100.00;99666.41;5028412;28;20702;-36
2023/01/15 03:03:45;;;;;;;21.98;3.13;;;;;;;6.49;100.00;99676.44;5043577;28;20032;-35
2023/01/15 03:06:16;;;;;;;21.85;2.65;;;;;;;6.50;100.00;99662.03;5044575;28;20330;-36
2023/01/15 03:08:42;;;;;;;29.23;2.22;;;;;;;6.50;100.00;99651.34;5046329;28;20040;-36
2023/01/15 03:11:13;;;;;;;21.13;2.22;;;;;;;6.47;100.00;99670.44;5048624;28;20025;-36
2023/01/15 03:13:41;;;;;;;22.92;2.72;;;;;;;6.47;100.00;99659.75;5033749;28;20025;-37
2023/01/15 03:19:20;;;;;;;20.65;1.90;;;;;;;6.42;100.00;99654.13;5037335;28;20191;-37
2023/01/15 03:21:58;;;;;;;23.42;2.95;;;;;;;6.42;100.00;99654.13;5029044;28;20050;-35
2023/01/15 03:24:29;;;;;;;20.13;2.70;;;;;;;6.43;100.00;99653.94;5028744;28;20469;-35
2023/01/15 03:26:55;;;;;;;28.40;2.42;;;;;;;6.45;100.00;99653.75;5028876;28;20423;-36
2023/01/15 03:29:21;;;;;;;13.77;2.05;;;;;;;6.43;100.00;99655.81;5037678;28;20021;-36
2023/01/15 03:31:48;;;;;;;19.55;2.38;;;;;;;6.44;100.00;99652.09;5046804;28;20082;-38
2023/01/15 03:34:14;;;;;;;27.52;2.83;;;;;;;6.43;100.00;99655.81;5011665;28;20064;-37
2023/01/15 03:36:40;;;;;;;25.52;1.95;;;;;;;6.41;100.00;99652.47;5033493;28;20053;-37
2023/01/15 03:39:05;;;;;;;21.83;1.92;;;;;;;6.43;100.00;99666.50;5029228;28;20098;-37
2023/01/15 03:41:55;;;;;;;20.48;2.80;;;;;;;6.42;100.00;99648.78;5042342;28;20032;-36
2023/01/15 03:44:26;;;;;;;12.55;1.88;;;;;;;6.44;100.00;99644.09;5050210;28;20065;-36
2023/01/15 03:46:59;;;;;;;16.55;2.45;;;;;;;6.48;100.00;99634.69;5051770;28;20034;-36
2023/01/15 03:49:40;;;;;;;19.75;2.50;;;;;;;6.51;100.00;99648.50;5033787;28;20025;-35
2023/01/15 03:52:32;;;;;;;22.27;2.05;;;;;;;6.50;100.00;99646.00;5052010;28;20055;-37
2023/01/15 03:55:10;;;;;;;22.30;1.88;;;;;;;6.48;100.00;99640.88;5031476;28;20021;-36
2023/01/15 03:57:42;;;;;;;19.67;2.03;;;;;;;6.52;100.00;99635.97;5044145;28;20032;-37
2023/01/15 04:00:35;;;;;;;18.80;2.30;;;;;;;6.50;100.00;99630.81;5041451;28;20550;-36
2023/01/15 04:03:02;;;;;;;15.10;2.35;;;;;;;6.52;100.00;99634.13;5037401;28;20029;-37
2023/01/15 04:05:28;;;;;;;22.90;3.30;;;;;;;6.45;100.00;99643.06;5033710;28;20234;-37
2023/01/15 04:07:55;;;;;;;25.88;2.63;;;;;;;6.38;100.00;99665.19;5039568;28;20369;-42
2023/01/15 04:10:21;;;;;;;19.83;2.22;;;;;;;6.30;100.00;99661.78;5035086;28;20024;-41
2023/01/15 04:12:48;;;;;;;36.15;2.90;;;;;;;6.29;100.00;99649.41;5049173;28;20037;-41
2023/01/15 04:15:14;;;;;;;12.60;1.73;;;;;;;6.29;100.00;99671.66;5052637;28;20535;-41
2023/01/15 04:17:39;;;;;;;20.60;2.80;;;;;;;6.30;100.00;99665.28;5051762;28;20075;-41
2023/01/15 04:20:05;;;;;;;23.38;2.15;;;;;;;6.31;100.00;99664.25;5033294;28;20026;-41
2023/01/15 04:22:30;;;;;;;21.80;2.00;;;;;;;6.34;100.00;99663.88;5037217;28;20029;-41
2023/01/15 04:24:56;;;;;;;15.75;2.03;;;;;;;6.30;100.00;99662.59;5047791;28;20547;-41
2023/01/15 04:27:21;;;;;;;12.95;1.85;;;;;;;6.34;100.00;99657.72;5048476;28;20048;-41
2023/01/15 04:29:47;;;;;;;29.50;2.30;;;;;;;6.33;100.00;99653.38;5035822;28;20037;-41
2023/01/15 04:32:12;;;;;;;29.15;2.70;;;;;;;6.33;100.00;99651.53;5038722;28;20511;-41
2023/01/15 04:34:38;;;;;;;24.42;2.08;;;;;;;6.33;100.00;99651.53;5049174;28;20040;-41
2023/01/15 04:37:03;;;;;;;22.45;1.75;;;;;;;6.32;100.00;99654.41;5047865;28;20025;-40
2023/01/15 04:39:29;;;;;;;22.50;1.95;;;;;;;6.32;100.00;99654.41;5031263;28;20374;-40
2023/01/15 04:44:38;;;;;;;17.83;2.20;;;;;;;6.28;100.00;99653.09;5034365;28;20036;-41
2023/01/15 04:47:04;;;;;;;18.58;2.33;;;;;;;6.30;100.00;99640.41;5031255;28;20017;-41
2023/01/15 04:49:29;;;;;;;21.25;2.40;;;;;;;6.29;100.00;99654.75;5030014;28;20041;-41
2023/01/15 04:51:54;;;;;;;23.35;2.20;;;;;;;6.29;100.00;99654.75;5041497;28;20029;-40
2023/01/15 04:54:21;;;;;;;32.60;2.20;;;;;;;6.30;100.00;99651.91;5048087;28;20055;-39
2023/01/15 04:56:50;;;;;;;17.33;2.25;;;;;;;6.31;100.00;99648.22;5051607;28;20075;-40
2023/01/15 04:59:17;;;;;;;17.77;1.80;;;;;;;6.32;100.00;99655.25;5042231;28;20038;-41
2023/01/15 05:01:43;;;;;;;16.20;1.63;;;;;;;6.29;100.00;99644.94;5031873;28;20032;-40
2023/01/15 05:04:08;;;;;;;16.30;1.92;;;;;;;6.26;100.00;99644.44;5033130;28;20029;-40
2023/01/15 05:06:34;;;;;;;25.83;1.92;;;;;;;6.22;100.00;99644.00;5028469;28;20137;-41
2023/01/15 05:09:00;;;;;;;27.90;2.28;;;;;;;6.23;100.00;99661.66;5044018;28;20033;-40
2023/01/15 05:11:25;;;;;;;29.83;1.90;;;;;;;6.23;100.00;99640.28;5030231;28;20077;-41
2023/01/15 05:13:51;;;;;;;22.73;1.85;;;;;;;6.20;100.00;99655.88;5031165;28;20084;-40
2023/01/15 05:16:23;;;;;;;30.38;2.45;;;;;;;6.18;100.00;99653.38;5030077;28;20036;-39
2023/01/15 05:18:49;;;;;;;18.73;1.98;;;;;;;6.15;100.00;99651.88;5035942;28;20029;-41
2023/01/15 05:21:19;;;;;;;20.23;1.65;;;;;;;6.15;100.00;99645.72;5044697;28;20079;-40
2023/01/15 05:23:45;;;;;;;24.25;2.33;;;;;;;6.12;100.00;99654.94;5037326;28;20021;-41
2023/01/15 05:26:11;;;;;;;13.77;1.75;;;;;;;6.13;100.00;99640.59;5038346;28;20480;-40
2023/01/15 05:28:36;;;;;;;10.77;1.60;;;;;;;6.13;100.00;99623.69;5030333;28;20029;-40
2023/01/15 05:31:10;;;;;;;17.63;1.50;;;;;;;6.16;100.00;99639.34;5028881;28;20128;-40
2023/01/15 05:33:36;;;;;;;17.67;1.60;;;;;;;6.12;100.00;99627.41;5034173;28;20496;-41
2023/01/15 05:36:09;;;;;;;24.73;2.63;;;;;;;6.06;100.00;99634.31;5030727;28;20405;-40
2023/01/15 05:38:35;;;;;;;24.55;2.10;;;;;;;6.07;100.00;99656.50;5039537;28;20496;-40
2023/01/15 05:41:47;;;;;;;13.80;2.20;;;;;;;5.98;100.00;99637.06;5030740;28;20021;-41
2023/01/15 05:43:54;;;;;;;18.67;2.00;;;;;;;5.91;100.00;99636.91;5034020;28;20063;-41
2023/01/15 05:46:20;;;;;;;27.13;2.25;;;;;;;5.89;100.00;99628.25;5037153;28;20132;-40
2023/01/15 05:48:45;;;;;;;18.05;1.60;;;;;;;5.89;100.00;99622.91;5033047;28;20112;-40
2023/01/15 05:51:11;;;;;;;22.50;2.35;;;;;;;5.86;100.00;99633.13;5030253;28;20033;-40
2023/01/15 05:53:36;;;;;;;18.65;1.90;;;;;;;5.84;100.00;99630.63;5030328;28;20116;-42
2023/01/15 05:56:02;;;;;;;22.65;2.30;;;;;;;5.83;100.00;99636.97;5035389;28;20026;-40
2023/01/15 05:58:27;;;;;;;20.95;2.25;;;;;;;5.85;100.00;99637.63;5031491;28;20548;-40
2023/01/15 06:00:53;;;;;;;34.38;2.47;;;;;;;5.89;100.00;99638.09;5028043;28;20033;-40
2023/01/15 06:03:20;;;;;;;27.75;2.08;;;;;;;5.87;100.00;99624.09;5028485;28;20025;-40
2023/01/15 06:05:52;;;;;;;29.83;4.13;;;;;;;5.93;100.00;99618.91;5044006;28;20036;-40
2023/01/15 06:08:17;;;;;;;16.38;1.98;;;;;;;5.98;100.00;99644.22;5042524;28;20036;-40
2023/01/15 06:10:44;;;;;;;26.13;2.25;;;;;;;5.96;100.00;99641.75;5038749;28;20035;-41
2023/01/15 06:13:09;;;;;;;36.63;3.00;;;;;;;5.96;100.00;99631.06;5040916;28;20392;-41
2023/01/15 06:15:34;;;;;;;34.50;2.92;;;;;;;5.94;100.00;99641.91;5029097;28;20036;-40
2023/01/15 06:18:00;;;;;;;25.15;2.20;;;;;;;5.96;100.00;99644.41;5027577;28;20033;-39
2023/01/15 06:20:25;;;;;;;14.38;1.92;;;;;;;5.92;100.00;99649.25;5043309;28;20032;-41
2023/01/15 06:22:50;;;;;;;17.90;2.10;;;;;;;5.90;100.00;99648.59;5045908;28;20056;-40
2023/01/15 06:25:16;;;;;;;24.90;2.00;;;;;;;5.91;100.00;99657.44;5039077;28;20025;-40
2023/01/15 06:27:43;;;;;;;22.35;2.80;;;;;;;5.90;100.00;99659.28;5025789;28;20109;-41
2023/01/15 06:30:10;;;;;;;29.02;2.83;;;;;;;5.92;100.00;99637.72;5036580;28;20386;-40
2023/01/15 06:32:35;;;;;;;27.95;2.33;;;;;;;5.92;100.00;99635.06;5031794;28;20488;-41
2023/01/15 06:35:00;;;;;;;33.00;3.38;;;;;;;5.91;100.00;99647.59;5029154;28;20069;-40
2023/01/15 06:37:25;;;;;;;39.95;3.25;;;;;;;5.91;100.00;99636.91;5033380;28;20782;-39
2023/01/15 06:39:51;;;;;;;34.35;3.55;;;;;;;5.91;100.00;99634.22;5042786;28;20041;-40
2023/01/15 06:47:44;;;;;;;31.98;2.65;;;;;;;5.93;100.00;99634.91;5028085;28;20090;-41
2023/01/15 06:50:11;;;;;;;24.67;2.60;;;;;;;5.93;100.00;99645.59;5027898;28;20036;-40
2023/01/15 06:52:36;;;;;;;29.77;2.60;;;;;;;5.87;100.00;99640.97;5032176;28;20104;-40
2023/01/15 06:55:01;;;;;;;16.98;2.72;;;;;;;5.83;100.00;99645.00;5042066;28;20123;-41
2023/01/15 06:57:27;;;;;;;33.22;2.58;;;;;;;5.79;100.00;99641.00;5047487;28;20112;-41
2023/01/15 06:59:52;;;;;;;28.05;2.70;;;;;;;5.76;100.00;99633.38;5028012;28;20520;-43
2023/01/15 07:02:18;;;;;;;22.95;2.50;;;;;;;5.81;100.00;99631.00;5033967;28;20487;-42
2023/01/15 07:04:44;;;;;;;25.15;3.53;;;;;;;5.86;100.00;99633.94;5046165;28;20529;-41
2023/01/15 07:07:09;;;;;;;23.88;3.45;;;;;;;5.85;100.00;99644.81;5041546;28;20022;-41
2023/01/15 07:09:34;;;;;;;24.83;2.33;;;;;;;5.87;100.00;99653.47;5027000;28;20044;-40
2023/01/15 07:12:00;;;;;;;21.13;2.42;;;;;;;5.89;100.00;99640.75;5047352;28;20522;-41
2023/01/15 07:14:27;;;;;;;20.80;2.08;;;;;;;5.92;100.00;99656.41;5030056;28;20029;-43
2023/01/15 07:16:52;;;;;;;26.27;2.22;;;;;;;5.94;100.00;99641.91;5029677;28;20473;-42
2023/01/15 07:19:19;;;;;;;32.75;2.40;;;;;;;6.01;100.00;99630.53;5029710;28;20029;-42
2023/01/15 07:21:44;;;;;;;41.50;3.30;;;;;;;5.98;100.00;99628.19;5030554;28;20109;-41
2023/01/15 07:24:10;;;;;;;26.08;2.25;;;;;;;5.99;100.00;99625.34;5027636;28;20479;-43
2023/01/15 07:26:36;;;;;;;35.83;2.67;;;;;;;6.00;100.00;99608.31;5039374;28;20037;-40
2023/01/15 07:29:02;;;;;;;33.28;2.50;;;;;;;6.03;100.00;99623.13;5046215;28;20384;-41
2023/01/15 07:31:27;;;;;;;29.92;2.72;;;;;;;6.04;100.00;99614.13;5043469;28;20044;-41
2023/01/15 07:33:55;;;;;;;32.20;2.88;;;;;;;6.05;100.00;99627.28;5064868;28;20028;-40
2023/01/15 07:36:21;;;;;;;17.58;2.30;;;;;;;6.04;100.00;99630.97;5071310;28;20100;-41
2023/01/15 07:38:46;;;;;;;34.63;2.58;;;;;;;6.01;100.00;99625.19;5071080;28;20111;-41
2023/01/15 07:52:08;;;;;;;24.02;2.15;;;;;;;6.10;100.00;99624.06;5042202;28;20071;-41
2023/01/15 07:54:33;;;;;;;27.25;2.35;;;;;;;6.11;100.00;99615.06;5046229;28;20055;-41
2023/01/15 07:56:58;;;;;;;31.60;3.70;;;;;;;6.11;100.00;99636.44;5045534;28;20120;-39
2023/01/15 07:59:24;;;;;;;21.80;2.53;;;;;;;6.13;100.00;99635.25;5039103;28;20076;-41
2023/01/15 08:01:50;;;;;;;30.42;2.92;;;;;;;6.20;100.00;99623.81;5045498;28;20370;-41
2023/01/15 08:04:15;;;;;;;25.85;2.53;;;;;;;6.22;100.00;99617.28;5045191;28;20075;-42
2023/01/15 08:06:40;;;;;;;20.58;2.03;;;;;;;6.23;100.00;99616.25;5041776;28;20021;-40
2023/01/15 08:09:06;;;;;;;36.72;3.55;;;;;;;6.25;100.00;99619.56;5044165;28;20060;-43
2023/01/15 08:17:00;;;;;;;27.65;1.98;;;;;;;6.36;100.00;99639.66;5043065;28;20048;-41
2023/01/15 08:19:28;;;;;;;33.58;2.40;;;;;;;6.23;100.00;99669.69;5027220;28;20037;-40
2023/01/15 08:21:54;;;;;;;34.47;2.78;;;;;;;6.07;100.00;99645.81;5040658;28;20037;-40
2023/01/15 08:24:19;;;;;;;23.73;2.13;;;;;;;5.97;100.00;99658.59;5045818;28;20477;-40
2023/01/15 08:26:45;;;;;;;46.30;2.83;;;;;;;5.95;100.00;99645.44;5043747;28;20037;-40
2023/01/15 08:29:10;;;;;;;20.10;2.17;;;;;;;5.97;100.00;99634.56;5050050;28;20051;-41
2023/01/15 08:31:35;;;;;;;21.33;1.85;;;;;;;6.03;100.00;99640.00;5034693;28;20040;-40
2023/01/15 08:34:01;;;;;;;28.73;4.57;;;;;;;6.14;100.00;99638.72;5040787;28;20411;-41
2023/01/15 08:36:27;;;;;;;29.75;2.13;;;;;;;6.21;100.00;99636.97;5038690;28;20056;-41
2023/01/15 08:38:52;;;;;;;30.70;2.55;;;;;;;6.17;100.00;99657.06;5045995;28;20029;-40
2023/01/15 08:41:17;;;;;;;25.85;3.70;;;;;;;6.13;100.00;99650.41;5051210;28;20174;-40
2023/01/15 08:43:44;;;;;;;27.15;2.28;;;;;;;6.12;100.00;99648.75;5048514;28;20120;-41
2023/01/15 08:46:10;;;;;;;22.30;1.80;;;;;;;6.10;100.00;99642.75;5049783;28;20033;-41
2023/01/15 08:48:35;;;;;;;23.50;1.67;;;;;;;6.08;100.00;99642.13;5034890;28;20048;-41
2023/01/15 08:51:05;;;;;;;20.17;2.17;;;;;;;6.12;100.00;99638.06;5040863;28;20090;-39
2023/01/15 08:53:31;;;;;;;26.75;2.80;;;;;;;6.15;100.00;99648.41;5048385;28;20722;-40
2023/01/15 08:55:56;;;;;;;22.70;1.90;;;;;;;6.15;100.00;99645.72;5048968;28;20116;-40
2023/01/15 08:58:21;;;;;;;26.00;2.90;;;;;;;6.14;100.00;99641.41;5040185;28;20017;-40
2023/01/15 09:00:50;;;;;;;26.42;3.38;;;;;;;6.17;100.00;99632.19;5045384;28;20068;-40
2023/01/15 09:03:15;;;;;;;31.80;2.75;;;;;;;6.17;100.00;99646.38;5031484;28;20473;-41
2023/01/15 09:05:41;;;;;;;24.83;2.42;;;;;;;6.18;100.00;99626.66;5039973;28;20068;-39
2023/01/15 09:08:06;;;;;;;24.75;2.30;;;;;;;6.21;100.00;99636.97;5035883;28;20021;-40
2023/01/15 09:10:32;;;;;;;36.40;3.78;;;;;;;6.26;100.00;99618.53;5035547;28;20108;-41
2023/01/15 09:13:00;;;;;;;21.08;2.33;;;;;;;6.29;100.00;99628.88;5038298;28;20033;-42
2023/01/15 09:15:26;;;;;;;33.63;2.03;;;;;;;6.33;100.00;99640.03;5037595;28;20022;-40
2023/01/15 09:17:51;;;;;;;32.45;3.30;;;;;;;6.35;100.00;99635.34;5041509;28;20064;-40
2023/01/15 09:20:16;;;;;;;33.72;3.35;;;;;;;6.36;100.00;99650.34;5036978;28;20060;-39
2023/01/15 09:22:42;;;;;;;17.40;2.42;;;;;;;6.36;100.00;99651.16;5042849;28;20063;-40
2023/01/15 09:25:08;;;;;;;30.13;2.05;;;;;;;6.41;100.00;99637.25;5045222;28;20017;-41
2023/01/15 09:27:33;;;;;;;32.10;2.80;;;;;;;6.41;100.00;99637.25;5034280;28;20469;-41
2023/01/15 09:29:58;;;;;;;33.15;2.45;;;;;;;6.43;100.00;99639.75;5034226;28;20024;-39
2023/01/15 09:32:24;;;;;;;20.38;2.92;;;;;;;6.45;100.00;99637.72;5037318;28;20030;-40
2023/01/15 09:34:49;;;;;;;19.95;2.33;;;;;;;6.49;100.00;99636.34;5039966;28;20060;-40
2023/01/15 09:37:15;;;;;;;32.05;3.30;;;;;;;6.54;100.00;99636.63;5050739;28;20028;-42
2023/01/15 09:39:40;;;;;;;18.90;2.25;;;;;;;6.60;100.00;99631.34;5045550;28;20029;-41
2023/01/15 09:42:32;;;;;;;28.25;3.17;;;;;;;6.65;100.00;99636.13;5031106;28;20087;-40
2023/01/15 09:45:13;;;;;;;40.85;3.17;;;;;;;6.70;100.00;99639.09;5042868;28;20384;-40
2023/01/15 09:47:43;;;;;;;23.33;2.80;;;;;;;6.73;100.00;99652.06;5029971;28;20512;-41
2023/01/15 09:50:24;;;;;;;24.00;2.83;;;;;;;6.75;100.00;99641.22;5030645;28;20167;-40
2023/01/15 09:52:49;;;;;;;35.88;3.55;;;;;;;6.79;100.00;99639.81;5036054;28;20059;-43
2023/01/15 09:55:18;;;;;;;26.50;2.38;;;;;;;6.78;100.00;99655.03;5039779;28;20112;-41
2023/01/15 09:57:45;;;;;;;;;;;;;;;6.82;100.00;99634.09;5031275;28;20029;-40
2023/01/15 10:00:34;;;;;;;34.63;2.25;;;;;;;6.88;100.00;99670.78;5047023;28;19915;-40
2023/01/15 10:03:09;;;;;;;29.77;2.47;;;;;;;6.93;100.00;99663.03;5027434;28;20381;-41
2023/01/15 10:05:43;;;;;;;23.70;2.00;;;;;;;6.92;100.00;99647.97;5039037;28;20473;-41
2023/01/15 10:08:19;;;;;;;29.77;2.30;;;;;;;6.90;100.00;99643.84;5028240;28;20497;-40
2023/01/15 10:10:47;;;;;;;26.55;2.63;;;;;;;6.87;100.00;99677.13;5039074;28;20029;-40
2023/01/15 10:13:48;;;;;;;28.00;2.28;;;;;;;6.87;100.00;99654.91;5038692;28;20041;-39
2023/01/15 10:16:21;;;;;;;25.48;2.97;;;;;;;6.87;100.00;99646.88;5027180;28;20037;-41
2023/01/15 10:18:47;;;;;;;25.90;2.58;;;;;;;6.89;100.00;99664.41;5031827;28;20040;-41
2023/01/15 10:21:26;;;;;;;23.08;2.17;;;;;;;6.87;100.00;99649.56;5037632;28;20389;-41
2023/01/15 10:24:01;;;;;;;26.30;3.33;;;;;;;6.89;100.00;99667.09;5030760;28;20090;-41
2023/01/15 10:26:31;;;;;;;23.13;2.28;;;;;;;6.95;100.00;99665.50;5029871;28;20029;-40
2023/01/15 10:28:58;;;;;;;24.83;2.00;;;;;;;7.01;100.00;99691.53;5030940;28;20052;-41
2023/01/15 10:31:46;;;;;;;25.63;2.78;;;;;;;7.05;100.00;99679.41;5033422;28;20112;-41
2023/01/15 10:34:33;;;;;;;28.15;2.38;;;;;;;7.01;100.00;99670.13;5022272;28;20106;-40
2023/01/15 10:37:12;;;;;;;29.73;2.55;;;;;;;6.95;100.00;99681.56;5031178;28;20124;-41
2023/01/15 10:39:47;;;;;;;25.58;2.97;;;;;;;6.93;100.00;99678.25;5032442;28;20037;-41
2023/01/15 10:42:31;;;;;;;26.63;2.65;;;;;;;6.94;100.00;99680.72;5031216;28;20036;-40
2023/01/15 10:45:03;;;;;;;25.05;2.63;;;;;;;6.96;100.00;99678.69;5042637;28;20484;-41
2023/01/15 10:47:34;;;;;;;18.92;1.70;;;;;;;7.06;100.00;99673.06;5047657;28;20440;-40
2023/01/15 10:50:02;;;;;;;36.45;2.75;;;;;;;7.07;100.00;99684.59;5034706;28;20122;-40
2023/01/15 10:52:32;;;;;;;31.65;2.60;;;;;;;7.11;100.00;99693.88;5046533;28;20029;-40
2023/01/15 10:55:05;;;;;;;19.88;1.63;;;;;;;7.20;100.00;99666.84;5046337;28;20067;-40
2023/01/15 10:57:43;;;;;;;30.88;1.98;;;;;;;7.19;100.00;99691.94;5031442;28;20029;-42
2023/01/15 11:00:09;;;;;;;36.33;3.88;;;;;;;7.20;100.00;99682.06;5036021;28;20033;-42
2023/01/15 11:02:48;;;;;;;21.75;2.60;;;;;;;7.22;100.00;99698.78;5037168;28;20438;-39
2023/01/15 11:05:16;;;;;;;23.05;2.55;;;;;;;7.24;100.00;99689.53;5036820;28;20034;-41
2023/01/15 11:07:44;;;;;;;30.95;2.25;;;;;;;7.33;100.00;99689.44;5034185;28;20037;-41
2023/01/15 11:10:16;;;;;;;25.67;2.00;;;;;;;7.47;100.00;99700.06;5039661;28;20032;-41
2023/01/15 11:21:29;;;;;;;33.10;3.03;;;;;;;8.10;100.00;99684.16;5036628;28;20044;-41
2023/01/15 11:23:55;;;;;;;52.88;4.65;;;;;;;8.02;100.00;99700.38;5048568;28;20032;-40
2023/01/15 11:26:27;;;;;;;33.40;2.60;;;;;;;7.85;100.00;99682.94;5045851;28;20045;-42
2023/01/15 11:28:54;;;;;;;29.35;2.35;;;;;;;7.77;100.00;99677.72;5025134;28;20037;-40
2023/01/15 11:31:19;;;;;;;21.55;2.58;;;;;;;7.74;100.00;99675.41;5030695;28;20112;-40
2023/01/15 11:33:56;;;;;;;49.88;3.17;;;;;;;7.66;100.00;99689.75;5040474;28;20529;-40
2023/01/15 11:36:24;;;;;;;33.47;2.90;;;;;;;7.66;100.00;99687.06;5033507;28;20053;-40
2023/01/15 11:38:50;;;;;;;30.42;2.85;;;;;;;7.57;100.00;99685.56;5029603;28;20034;-40
2023/01/15 11:52:45;;;;;;;23.50;1.77;;;;;;;7.34;100.00;99693.75;5019103;28;20063;-41
2023/01/15 11:55:22;;;;;;;35.80;2.50;;;;;;;7.40;100.00;99698.38;5036635;28;20033;-41
2023/01/15 11:57:49;;;;;;;35.92;3.25;;;;;;;7.35;100.00;99706.94;5040202;28;20041;-40
2023/01/15 12:00:26;;;;;;;32.83;4.25;;;;;;;7.35;100.00;99704.28;5041537;28;20420;-40
2023/01/15 12:02:53;;;;;;;29.40;3.08;;;;;;;7.35;100.00;99719.50;5042306;28;20036;-39
2023/01/15 12:05:28;;;;;;;30.50;2.33;;;;;;;7.21;100.00;99694.41;5042191;28;20065;-40
2023/01/15 12:07:57;;;;;;;40.70;2.95;;;;;;;7.18;100.00;99706.31;5041391;28;20507;-40
2023/01/15 12:13:13;;;;;;;34.85;3.85;;;;;;;7.23;100.00;99695.91;5040796;28;20135;-40
2023/01/15 12:15:42;;;;;;;;;;;;;;;7.29;100.00;99709.53;5041014;28;20081;-42
2023/01/15 12:18:18;;;;;;;32.22;2.47;;;;;;;7.20;100.00;99723.03;5044899;28;19917;-42
2023/01/15 12:20:53;;;;;;;25.10;1.92;;;;;;;7.17;100.00;99702.00;5045778;28;20045;-39
2023/01/15 12:23:41;;;;;;;31.25;2.25;;;;;;;7.23;100.00;99697.75;5044920;28;20045;-41
2023/01/15 12:26:06;;;;;;;;;;;;;;;7.34;100.00;99696.41;5043931;28;20039;-41